Time;durP1;ratioP1;P1;durP2;ratioP2;P2;SDS_P1;SDS_P2;PMS_P1;PMS_P2;Temp;Humidity;BMP_temperature;BMP_pressure;BME280_temperature;BME280_humidity;BME280_pressure;Samples;Min_cycle;Max_cycle;Signal;HPM_P1;HPM_P2
2021/01/21 00:00:26;;;;;;;2.67;1.73;;;11.10;99.90;;;;;;4950868;29;20046;-95
2021/01/21 00:02:52;;;;;;;2.05;1.35;;;11.10;99.90;;;;;;4955834;29;20027;-95
2021/01/21 00:05:18;;;;;;;3.72;1.92;;;11.10;99.90;;;;;;4960871;28;20034;-96
2021/01/21 00:07:43;;;;;;;2.95;1.73;;;11.10;99.90;;;;;;4963881;28;20019;-94
2021/01/21 00:10:12;;;;;;;3.53;1.58;;;11.10;99.90;;;;;;4964237;29;20032;-94
2021/01/21 00:12:39;;;;;;;3.38;1.50;;;11.00;99.90;;;;;;4951937;29;20098;-94
2021/01/21 00:15:06;;;;;;;2.28;1.55;;;11.00;99.90;;;;;;4961034;28;20019;-94
2021/01/21 00:17:32;;;;;;;4.78;1.63;;;10.60;99.90;;;;;;4947623;29;20028;-94
2021/01/21 00:19:58;;;;;;;2.95;1.42;;;11.00;99.90;;;;;;4951584;29;20049;-92
2021/01/21 00:22:24;;;;;;;2.65;1.48;;;11.00;99.90;;;;;;4957300;29;20027;-94
2021/01/21 00:24:49;;;;;;;2.60;1.73;;;11.00;99.90;;;;;;4950988;29;20086;-94
2021/01/21 00:27:15;;;;;;;3.30;1.63;;;10.90;99.90;;;;;;4953187;28;20134;-93
2021/01/21 00:29:41;;;;;;;2.88;1.55;;;10.90;99.90;;;;;;4968800;29;20407;-93
2021/01/21 00:32:06;;;;;;;6.40;2.33;;;11.00;99.90;;;;;;4951658;29;20027;-95
2021/01/21 00:34:35;;;;;;;4.15;1.98;;;10.90;99.90;;;;;;4948515;29;20023;-96
2021/01/21 00:37:01;;;;;;;2.15;1.40;;;10.90;99.90;;;;;;4959255;28;20401;-95
2021/01/21 00:39:27;;;;;;;5.60;1.50;;;10.80;99.90;;;;;;4977930;28;20087;-95
2021/01/21 00:41:54;;;;;;;3.00;1.25;;;10.50;99.90;;;;;;4978914;28;20031;-96
2021/01/21 00:44:21;;;;;;;2.75;1.95;;;11.00;99.90;;;;;;4961580;29;20027;-94
2021/01/21 00:46:47;;;;;;;5.85;1.50;;;11.10;99.90;;;;;;4961159;28;20027;-96
2021/01/21 00:49:12;;;;;;;3.53;1.92;;;11.00;99.90;;;;;;4954737;28;20031;-95
2021/01/21 00:51:38;;;;;;;2.03;1.83;;;11.00;99.90;;;;;;4963159;29;20031;-93
2021/01/21 00:54:04;;;;;;;2.53;1.92;;;11.00;99.90;;;;;;4956975;29;20081;-93
2021/01/21 00:56:29;;;;;;;4.25;1.75;;;10.90;99.90;;;;;;4961333;28;20030;-94
2021/01/21 00:58:55;;;;;;;3.53;1.83;;;10.90;99.90;;;;;;4980752;28;20103;-94
2021/01/21 01:01:22;;;;;;;5.10;1.33;;;10.90;99.90;;;;;;4980305;28;20031;-94
2021/01/21 01:03:48;;;;;;;7.03;1.85;;;10.30;99.90;;;;;;4979618;28;20038;-93
2021/01/21 01:06:14;;;;;;;2.90;1.33;;;10.90;99.90;;;;;;4961491;29;20015;-95
2021/01/21 01:08:42;;;;;;;2.58;1.45;;;10.90;99.90;;;;;;4948231;29;20028;-96
2021/01/21 01:11:10;;;;;;;7.97;1.70;;;11.40;99.90;;;;;;4934054;29;20035;-95
2021/01/21 01:13:36;;;;;;;3.92;1.35;;;11.00;99.90;;;;;;4941023;29;20063;-96
2021/01/21 01:16:02;;;;;;;5.30;1.80;;;11.00;99.90;;;;;;4951521;29;20046;-96
2021/01/21 01:18:29;;;;;;;1.65;1.40;;;11.00;99.90;;;;;;4917290;29;20044;-96
2021/01/21 01:20:58;;;;;;;2.50;1.30;;;11.00;99.90;;;;;;4914307;29;20072;-96
2021/01/21 01:23:26;;;;;;;2.70;1.30;;;11.00;99.90;;;;;;4917154;29;20035;-96
2021/01/21 01:25:53;;;;;;;5.10;2.28;;;11.00;99.90;;;;;;4947775;29;20096;-95
2021/01/21 01:28:22;;;;;;;2.17;1.30;;;10.90;99.90;;;;;;4949376;29;20035;-95
2021/01/21 01:30:50;;;;;;;2.75;1.40;;;11.10;99.90;;;;;;4933728;29;20035;-95
2021/01/21 01:33:18;;;;;;;3.47;1.60;;;11.10;99.90;;;;;;4934245;29;20084;-95
2021/01/21 01:35:45;;;;;;;3.78;1.70;;;11.20;99.90;;;;;;4912543;29;20200;-95
2021/01/21 01:38:13;;;;;;;3.30;1.35;;;11.20;99.90;;;;;;4930807;29;20071;-93
2021/01/21 01:40:42;;;;;;;2.88;1.58;;;11.20;99.90;;;;;;4941940;29;20421;-93
2021/01/21 01:43:07;;;;;;;4.35;1.45;;;11.10;99.90;;;;;;4953144;29;20023;-93
2021/01/21 01:45:33;;;;;;;3.00;1.50;;;10.90;99.90;;;;;;4967319;29;20086;-94
2021/01/21 01:47:59;;;;;;;2.60;1.50;;;11.30;99.90;;;;;;4948027;29;20101;-91
2021/01/21 01:50:27;;;;;;;4.45;1.65;;;11.30;99.90;;;;;;4924499;29;20027;-92
2021/01/21 01:52:54;;;;;;;5.50;1.45;;;11.30;99.90;;;;;;4950025;29;20035;-92
2021/01/21 01:55:20;;;;;;;5.35;1.98;;;11.40;99.90;;;;;;4935569;29;20051;-93
2021/01/21 01:57:57;;;;;;;2.08;1.60;;;11.40;99.90;;;;;;4941694;28;20024;-95
2021/01/21 02:00:22;;;;;;;3.90;1.40;;;11.40;99.90;;;;;;4935580;29;20043;-93
2021/01/21 02:02:49;;;;;;;2.42;1.27;;;11.40;99.90;;;;;;4937344;29;20512;-94
2021/01/21 02:05:18;;;;;;;2.17;1.23;;;11.50;99.90;;;;;;4951687;29;20052;-95
2021/01/21 02:07:44;;;;;;;2.28;1.45;;;11.50;99.90;;;;;;4933489;29;20086;-95
2021/01/21 02:10:13;;;;;;;1.63;1.30;;;11.50;99.90;;;;;;4926150;29;20074;-94
2021/01/21 02:12:55;;;;;;;3.92;1.35;;;11.60;99.90;;;;;;4918630;29;20024;-96
2021/01/21 02:15:36;;;;;;;2.67;1.30;;;11.70;99.90;;;;;;4926072;29;20024;-95
2021/01/21 02:18:11;;;;;;;1.48;1.30;;;11.70;99.90;;;;;;4941577;29;20040;-96
2021/01/21 02:20:59;;;;;;;2.80;1.20;;;11.60;99.90;;;;;;4924362;29;20040;-94
2021/01/21 02:24:02;;;;;;;2.83;1.60;;;11.70;99.90;;;;;;4943628;29;20039;-94
2021/01/21 02:26:40;;;;;;;2.35;1.58;;;11.50;99.90;;;;;;4940928;29;20107;-93
2021/01/21 02:29:14;;;;;;;2.22;1.13;;;11.70;99.90;;;;;;4943247;29;20365;-94
2021/01/21 02:31:59;;;;;;;1.98;1.20;;;11.80;99.90;;;;;;4938412;29;20373;-94
2021/01/21 02:34:45;;;;;;;2.63;1.85;;;11.80;99.90;;;;;;4942770;29;20079;-94
2021/01/21 02:37:24;;;;;;;3.95;1.48;;;11.80;99.90;;;;;;4927290;29;20035;-92
2021/01/21 02:39:55;;;;;;;3.15;1.40;;;11.70;99.90;;;;;;4941733;29;20162;-94
2021/01/21 02:42:22;;;;;;;2.33;1.30;;;11.80;99.90;;;;;;4923418;29;20055;-95
2021/01/21 02:44:48;;;;;;;4.30;1.13;;;11.80;99.90;;;;;;4923508;29;20513;-94
2021/01/21 02:47:16;;;;;;;2.47;1.25;;;11.80;99.90;;;;;;4944302;28;20087;-93
2021/01/21 02:49:42;;;;;;;2.40;1.10;;;11.80;99.90;;;;;;4939650;29;20075;-95
2021/01/21 02:52:19;;;;;;;3.53;1.77;;;11.90;99.90;;;;;;4943316;29;20024;-94
2021/01/21 02:54:53;;;;;;;1.80;1.08;;;11.90;99.90;;;;;;4951809;29;20071;-95
2021/01/21 02:57:23;;;;;;;4.22;1.20;;;11.70;99.90;;;;;;4958741;29;20016;-93
2021/01/21 02:59:51;;;;;;;1.95;1.15;;;11.90;99.90;;;;;;4959615;29;20031;-94
2021/01/21 03:02:20;;;;;;;3.75;1.20;;;11.90;99.90;;;;;;4959675;29;20149;-94
2021/01/21 03:04:46;;;;;;;7.20;1.67;;;11.90;99.90;;;;;;4959634;29;20100;-93
2021/01/21 03:07:15;;;;;;;1.55;1.40;;;11.80;99.90;;;;;;4942687;29;20036;-91
2021/01/21 03:09:45;;;;;;;3.47;1.55;;;11.80;99.90;;;;;;4946017;28;20043;-93
2021/01/21 03:12:27;;;;;;;2.55;1.30;;;11.80;99.90;;;;;;4939895;29;20100;-93
2021/01/21 03:14:55;;;;;;;2.75;1.85;;;11.60;99.90;;;;;;4936448;29;20037;-94
2021/01/21 03:17:22;;;;;;;3.85;1.23;;;11.90;99.90;;;;;;4936792;29;20035;-94
2021/01/21 03:19:48;;;;;;;4.00;1.50;;;11.80;99.90;;;;;;4951587;29;20023;-93
2021/01/21 03:22:15;;;;;;;3.00;1.48;;;11.90;99.90;;;;;;4955630;29;20019;-93
2021/01/21 03:24:41;;;;;;;3.17;1.40;;;11.80;99.90;;;;;;4957293;29;20024;-93
2021/01/21 03:27:07;;;;;;;1.92;1.27;;;11.90;99.90;;;;;;4937479;28;20039;-94
2021/01/21 03:29:33;;;;;;;1.42;1.33;;;11.80;99.90;;;;;;4945117;29;20042;-92
2021/01/21 03:31:59;;;;;;;1.70;1.30;;;11.80;99.90;;;;;;4939136;29;20059;-93
2021/01/21 03:34:25;;;;;;;2.67;1.30;;;11.80;99.90;;;;;;4945786;29;20027;-94
2021/01/21 03:36:51;;;;;;;2.92;1.50;;;11.90;99.90;;;;;;4939975;29;20630;-94
2021/01/21 03:39:17;;;;;;;1.50;1.10;;;11.90;99.90;;;;;;4929853;29;20028;-94
2021/01/21 03:41:42;;;;;;;1.27;1.13;;;11.90;99.90;;;;;;4924312;29;20024;-94
2021/01/21 03:44:08;;;;;;;4.18;1.40;;;12.00;99.90;;;;;;4920416;29;20031;-96
2021/01/21 03:46:34;;;;;;;2.53;1.20;;;12.00;99.90;;;;;;4944470;29;20030;-94
2021/01/21 03:49:00;;;;;;;2.47;1.00;;;12.10;99.90;;;;;;4947343;29;20064;-94
2021/01/21 03:51:26;;;;;;;1.83;1.05;;;12.00;99.90;;;;;;4945237;29;20039;-95
2021/01/21 03:53:53;;;;;;;5.45;1.35;;;12.00;99.90;;;;;;4946161;29;20031;-96
2021/01/21 03:56:19;;;;;;;3.20;1.27;;;12.00;99.90;;;;;;4929492;29;20086;-96
2021/01/21 03:58:44;;;;;;;2.40;1.15;;;12.00;99.90;;;;;;4936634;29;20035;-95
2021/01/21 04:01:10;;;;;;;2.20;1.50;;;12.00;99.90;;;;;;4960563;29;20135;-94
2021/01/21 04:03:36;;;;;;;3.20;1.55;;;12.00;99.90;;;;;;4961168;29;20035;-94
2021/01/21 04:06:05;;;;;;;4.05;1.35;;;12.00;99.90;;;;;;4945246;29;20087;-94
2021/01/21 04:08:30;;;;;;;1.65;1.00;;;12.00;99.90;;;;;;4944933;29;20091;-94
2021/01/21 04:10:57;;;;;;;2.08;1.20;;;12.00;99.90;;;;;;4957165;29;20035;-95
2021/01/21 04:13:23;;;;;;;2.00;0.90;;;12.00;99.90;;;;;;4947584;29;20334;-93
2021/01/21 04:15:49;;;;;;;2.00;0.93;;;12.00;99.90;;;;;;4942551;29;20078;-93
2021/01/21 04:18:15;;;;;;;1.33;0.70;;;12.00;99.90;;;;;;4934757;29;20024;-94
2021/01/21 04:20:41;;;;;;;1.38;0.95;;;12.00;99.90;;;;;;4940969;29;20034;-93
2021/01/21 04:23:07;;;;;;;1.25;1.00;;;12.10;99.90;;;;;;4916110;29;20042;-95
2021/01/21 04:25:33;;;;;;;0.98;0.85;;;12.00;99.90;;;;;;4930131;29;20088;-94
2021/01/21 04:27:59;;;;;;;3.20;1.00;;;12.00;99.90;;;;;;4952759;29;20031;-93
2021/01/21 04:30:24;;;;;;;1.17;0.75;;;12.00;99.90;;;;;;4934745;29;20110;-93
2021/01/21 04:32:50;;;;;;;2.95;1.70;;;11.90;99.90;;;;;;4953752;29;20024;-93
2021/01/21 04:35:16;;;;;;;1.30;0.90;;;12.00;99.90;;;;;;4938735;29;20199;-94
2021/01/21 04:37:42;;;;;;;1.13;0.70;;;12.00;99.90;;;;;;4959104;29;20027;-94
2021/01/21 04:40:08;;;;;;;5.45;1.20;;;12.00;99.90;;;;;;4959533;29;20087;-95
2021/01/21 04:42:35;;;;;;;1.00;0.90;;;12.00;99.90;;;;;;4960842;29;20012;-94
2021/01/21 04:45:04;;;;;;;4.13;0.80;;;12.00;99.90;;;;;;4960601;29;20020;-93
2021/01/21 04:47:30;;;;;;;4.45;1.35;;;11.90;99.90;;;;;;4959078;29;20040;-94
2021/01/21 04:49:57;;;;;;;1.00;0.52;;;12.00;99.90;;;;;;4958828;28;20046;-94
2021/01/21 04:52:24;;;;;;;0.85;0.63;;;11.90;99.90;;;;;;4942970;29;20036;-93
2021/01/21 04:54:59;;;;;;;0.70;0.70;;;11.80;99.90;;;;;;4959935;28;20036;-94
2021/01/21 04:57:32;;;;;;;1.92;0.88;;;11.80;99.90;;;;;;4927198;29;20435;-94
2021/01/21 05:00:00;;;;;;;0.80;0.80;;;11.80;99.90;;;;;;4941894;29;20055;-94
2021/01/21 05:02:27;;;;;;;0.63;0.60;;;11.70;99.90;;;;;;4942584;29;20111;-94
2021/01/21 05:04:54;;;;;;;0.98;0.73;;;11.70;99.90;;;;;;4931327;29;20335;-95
2021/01/21 05:07:20;;;;;;;3.72;0.85;;;11.60;99.90;;;;;;4938758;29;20019;-94
2021/01/21 05:09:46;;;;;;;2.15;0.93;;;11.60;99.90;;;;;;4925135;29;20580;-94
2021/01/21 05:12:12;;;;;;;1.65;0.70;;;10.80;99.90;;;;;;4924487;29;20031;-93
2021/01/21 05:14:38;;;;;;;2.08;1.00;;;11.60;99.90;;;;;;4947665;29;20059;-94
2021/01/21 05:17:05;;;;;;;2.08;1.15;;;11.60;99.90;;;;;;4930450;29;20038;-94
2021/01/21 05:19:33;;;;;;;1.05;0.85;;;11.70;99.90;;;;;;4944297;29;20028;-94
2021/01/21 05:22:00;;;;;;;1.55;0.88;;;11.60;99.90;;;;;;4922915;29;20024;-90
2021/01/21 05:24:26;;;;;;;2.13;0.90;;;11.70;99.90;;;;;;4940523;29;20026;-94
2021/01/21 05:26:55;;;;;;;1.73;0.95;;;11.70;99.90;;;;;;4929643;29;20056;-91
2021/01/21 05:29:21;;;;;;;1.00;1.00;;;11.70;99.90;;;;;;4936251;29;20497;-95
2021/01/21 05:31:48;;;;;;;1.30;0.90;;;11.80;99.90;;;;;;4950133;29;20039;-94
2021/01/21 05:34:18;;;;;;;1.15;0.70;;;11.80;99.90;;;;;;4927336;29;20028;-94
2021/01/21 05:36:46;;;;;;;2.30;0.80;;;11.80;99.90;;;;;;4937710;29;20032;-95
2021/01/21 05:39:11;;;;;;;1.05;1.05;;;11.80;99.90;;;;;;4953224;28;20019;-96
2021/01/21 05:41:38;;;;;;;0.73;0.73;;;11.80;99.90;;;;;;4949019;29;20074;-94
2021/01/21 05:44:06;;;;;;;3.13;1.10;;;11.30;99.90;;;;;;4956661;28;20028;-95
2021/01/21 05:46:35;;;;;;;3.38;1.38;;;9.10;99.90;;;;;;4930964;29;20023;-95
2021/01/21 05:49:04;;;;;;;7.88;1.27;;;7.40;99.90;;;;;;4929454;29;20036;-94
2021/01/21 05:51:30;;;;;;;6.07;1.08;;;6.70;99.90;;;;;;4914828;29;20027;-93
2021/01/21 05:53:56;;;;;;;3.92;0.90;;;6.40;99.90;;;;;;4918889;29;20024;-95
2021/01/21 05:56:23;;;;;;;5.75;1.88;;;6.20;99.90;;;;;;4888646;29;20032;-94
2021/01/21 05:58:56;;;;;;;4.05;1.00;;;6.20;99.90;;;;;;4921950;29;20033;-95
2021/01/21 06:01:26;;;;;;;8.40;1.55;;;6.10;99.90;;;;;;4905588;29;20096;-95
2021/01/21 06:03:56;;;;;;;1.83;0.95;;;6.00;99.90;;;;;;4891796;29;20036;-94
2021/01/21 06:06:28;;;;;;;8.85;1.17;;;5.90;99.90;;;;;;4933258;29;20051;-94
2021/01/21 06:08:53;;;;;;;4.10;1.00;;;5.90;99.90;;;;;;4906585;29;20447;-95
2021/01/21 06:11:56;;;;;;;;;;;;;;;;;;;;;
2021/01/21 06:14:24;;;;;;;5.85;0.80;;;5.70;99.90;;;;;;4918200;29;20127;-95
2021/01/21 06:16:54;;;;;;;3.15;1.55;;;5.90;99.90;;;;;;4904919;29;20047;-96
2021/01/21 06:19:20;;;;;;;3.58;1.52;;;5.60;99.90;;;;;;4890293;29;20132;-95
2021/01/21 06:21:58;;;;;;;3.45;1.00;;;5.60;99.90;;;;;;4910499;29;20047;-94
2021/01/21 06:24:29;;;;;;;1.50;0.93;;;5.60;99.90;;;;;;4918849;29;20024;-95
2021/01/21 06:26:58;;;;;;;2.55;1.80;;;5.70;99.90;;;;;;4908713;29;20036;-94
2021/01/21 06:29:28;;;;;;;3.72;2.10;;;5.70;99.90;;;;;;4923290;29;20090;-96
2021/01/21 06:32:00;;;;;;;7.78;1.00;;;5.60;99.90;;;;;;4884036;29;20356;-95
2021/01/21 06:34:30;;;;;;;2.75;0.88;;;5.90;99.90;;;;;;4898121;29;20058;-95
2021/01/21 06:37:11;;;;;;;4.28;1.15;;;5.70;99.90;;;;;;4917332;29;20052;-95
2021/01/21 06:39:53;;;;;;;9.45;1.35;;;5.70;99.90;;;;;;4912297;29;20347;-93
2021/01/21 06:42:28;;;;;;;4.00;0.90;;;5.70;99.90;;;;;;4890565;29;20374;-94
2021/01/21 06:44:58;;;;;;;4.97;1.48;;;5.80;99.90;;;;;;4886708;29;20060;-94
2021/01/21 06:47:25;;;;;;;9.25;1.23;;;5.80;99.90;;;;;;4913627;29;20378;-95
2021/01/21 06:49:58;;;;;;;3.47;1.30;;;5.80;99.90;;;;;;4940631;29;20043;-94
2021/01/21 06:52:29;;;;;;;3.13;1.10;;;5.80;99.90;;;;;;4934582;29;20042;-94
2021/01/21 06:54:56;;;;;;;2.95;1.10;;;5.80;99.90;;;;;;4944262;29;20565;-95
2021/01/21 06:57:34;;;;;;;2.72;0.93;;;5.80;99.90;;;;;;4934648;29;20039;-95
2021/01/21 07:00:35;;;;;;;4.80;1.33;;;5.80;99.90;;;;;;4941669;29;20044;-95
2021/01/21 07:03:03;;;;;;;2.83;1.00;;;5.80;99.90;;;;;;4931747;29;20031;-95
2021/01/21 07:05:54;;;;;;;5.70;1.98;;;5.70;99.90;;;;;;4920380;29;20037;-95
2021/01/21 07:08:20;;;;;;;5.10;1.77;;;5.70;99.90;;;;;;4950451;29;20079;-94
2021/01/21 07:10:47;;;;;;;6.88;1.40;;;5.90;99.90;;;;;;4944349;29;20028;-95
2021/01/21 07:17:01;;;;;;;4.43;1.00;;;5.60;99.90;;;;;;4857451;29;20221;-96
2021/01/21 07:19:43;;;;;;;1.85;0.52;;;5.50;99.90;;;;;;4849665;29;20038;-95
2021/01/21 07:22:25;;;;;;;1.40;0.70;;;5.70;99.90;;;;;;4867250;29;20026;-94
2021/01/21 07:24:55;;;;;;;2.47;1.40;;;5.60;99.90;;;;;;4858716;29;20046;-94
2021/01/21 07:27:26;;;;;;;3.30;0.98;;;5.60;99.90;;;;;;4857893;29;20062;-94
2021/01/21 07:32:39;;;;;;;1.23;0.70;;;5.60;99.90;;;;;;5709590;23;20517;-82
2021/01/21 07:35:25;;;;;;;3.95;0.82;;;5.60;99.90;;;;;;4934048;29;20028;-83
2021/01/21 07:39:02;;;;;;;1.75;0.77;;;5.70;99.90;;;;;;4934956;29;20031;-82
2021/01/21 07:41:43;;;;;;;3.83;1.00;;;5.90;99.90;;;;;;4928455;29;20040;-84
2021/01/21 07:44:12;;;;;;;5.30;1.38;;;5.90;99.90;;;;;;4921816;29;20063;-85
2021/01/21 07:49:30;;;;;;;;;;;5.90;99.90;;;;;;4934544;29;20070;-92
2021/01/21 07:54:48;;;;;;;3.60;2.00;;;5.80;99.90;;;;;;5433261;23;20046;-87
2021/01/21 08:00:29;;;;;;;5.55;1.48;;;5.70;99.90;;;;;;5187118;23;19910;-92
2021/01/21 08:04:02;;;;;;;2.22;1.02;;;5.70;99.90;;;;;;4981708;28;20034;-93
2021/01/21 08:06:27;;;;;;;5.75;0.75;;;5.70;99.90;;;;;;4910042;28;20020;-91
2021/01/21 08:08:56;;;;;;;1.13;0.70;;;5.70;99.90;;;;;;4945399;28;20058;-93
2021/01/21 08:11:24;;;;;;;2.63;0.80;;;5.80;99.90;;;;;;5111744;23;20138;-92
2021/01/21 08:13:57;;;;;;;2.38;0.80;;;5.80;99.90;;;;;;4990641;23;20059;-92
2021/01/21 08:16:24;;;;;;;4.43;1.42;;;5.70;99.90;;;;;;5190033;23;20051;-86
2021/01/21 08:19:02;;;;;;;2.38;0.90;;;5.80;99.90;;;;;;4963157;28;20035;-95
2021/01/21 08:21:28;;;;;;;2.72;1.20;;;5.80;99.90;;;;;;5103365;23;20039;-92
2021/01/21 08:24:49;;;;;;;5.22;1.30;;;5.60;99.90;;;;;;5013717;23;20047;-95
2021/01/21 08:27:21;;;;;;;3.40;1.48;;;5.70;99.90;;;;;;4972980;29;20018;-96
2021/01/21 08:29:49;;;;;;;8.32;2.28;;;5.70;99.90;;;;;;4973236;28;20038;-91
2021/01/21 08:32:19;;;;;;;3.95;1.13;;;5.60;99.90;;;;;;4973177;28;20074;-88
2021/01/21 08:35:06;;;;;;;2.13;1.10;;;5.60;99.90;;;;;;4971702;29;20038;-93
2021/01/21 08:37:38;;;;;;;1.77;1.02;;;5.50;99.90;;;;;;4919921;29;20040;-92
2021/01/21 08:40:11;;;;;;;3.22;1.70;;;5.50;99.90;;;;;;4938473;29;20055;-92
2021/01/21 08:42:46;;;;;;;3.42;1.27;;;5.40;99.90;;;;;;4923645;29;20493;-91
2021/01/21 08:45:12;;;;;;;6.43;1.48;;;5.30;99.90;;;;;;4930412;29;20024;-92
2021/01/21 08:50:18;;;;;;;2.80;1.23;;;5.20;99.90;;;;;;4946064;29;20088;-91
2021/01/21 08:53:00;;;;;;;5.53;1.75;;;5.20;99.90;;;;;;4947574;29;20020;-91
2021/01/21 08:55:49;;;;;;;3.63;1.90;;;5.20;99.90;;;;;;4943038;29;20036;-91
2021/01/21 08:58:41;;;;;;;7.38;1.90;;;5.30;99.90;;;;;;4924698;29;20025;-93
2021/01/21 09:01:12;;;;;;;6.40;2.15;;;5.40;99.90;;;;;;4870097;29;20052;-91
2021/01/21 09:03:58;;;;;;;6.97;2.15;;;5.50;99.90;;;;;;4871045;29;20105;-91
2021/01/21 09:06:43;;;;;;;;;;;;;;;;;;;;;
2021/01/21 09:09:12;;;;;;;7.53;2.05;;;5.70;99.90;;;;;;4868247;29;20120;-91
2021/01/21 09:11:39;;;;;;;7.00;2.13;;;5.70;99.90;;;;;;4837208;29;20034;-92
2021/01/21 09:14:09;;;;;;;6.07;2.15;;;5.90;99.90;;;;;;4859507;29;20029;-93
2021/01/21 09:16:49;;;;;;;4.53;1.60;;;5.70;99.90;;;;;;4847901;29;20050;-93
2021/01/21 09:19:38;;;;;;;4.53;1.85;;;5.90;99.90;;;;;;4872922;29;20029;-92
2021/01/21 09:22:17;;;;;;;5.57;1.20;;;6.10;99.90;;;;;;4865211;29;20160;-94
2021/01/21 09:25:32;;;;;;;7.55;2.25;;;6.50;99.90;;;;;;4862698;29;20061;-94
2021/01/21 09:31:33;;;;;;;6.18;2.35;;;6.20;99.90;;;;;;4926328;23;20065;-93
2021/01/21 09:34:08;;;;;;;2.33;1.05;;;6.30;99.90;;;;;;5100896;23;20190;-90
2021/01/21 09:40:12;;;;;;;;;;;6.40;99.90;;;;;;4917964;29;20138;-91
2021/01/21 09:42:39;;;;;;;3.75;1.48;;;6.40;99.90;;;;;;5187954;23;19912;-91
2021/01/21 09:45:11;;;;;;;3.65;2.60;;;6.50;99.90;;;;;;4918417;29;20032;-89
2021/01/21 09:47:50;;;;;;;4.05;1.50;;;6.50;99.90;;;;;;4924020;29;20039;-93
2021/01/21 09:50:20;;;;;;;4.57;1.73;;;6.50;99.90;;;;;;4931018;29;20024;-92
2021/01/21 09:53:06;;;;;;;5.70;1.95;;;6.60;99.90;;;;;;4943777;29;20020;-91
2021/01/21 09:55:41;;;;;;;5.03;1.77;;;6.60;99.90;;;;;;4942103;29;20027;-88
2021/01/21 09:58:15;;;;;;;8.77;1.80;;;6.70;99.90;;;;;;4950538;29;20008;-91
2021/01/21 10:00:40;;;;;;;3.50;1.80;;;6.50;99.90;;;;;;4931581;29;20070;-91
2021/01/21 10:03:08;;;;;;;4.68;1.70;;;7.10;99.90;;;;;;4949309;29;20024;-92
2021/01/21 10:05:37;;;;;;;5.47;1.77;;;6.80;99.90;;;;;;4947000;29;20124;-93
2021/01/21 10:08:03;;;;;;;7.47;2.58;;;6.90;99.90;;;;;;4913902;29;20070;-90
2021/01/21 10:10:32;;;;;;;5.07;1.30;;;6.70;99.90;;;;;;4919428;29;20024;-90
2021/01/21 10:13:10;;;;;;;4.93;2.08;;;7.00;99.90;;;;;;4890310;29;20414;-92
2021/01/21 10:15:38;;;;;;;4.57;2.25;;;7.10;99.90;;;;;;4881023;29;20051;-90
2021/01/21 10:18:07;;;;;;;7.90;2.20;;;7.20;99.90;;;;;;4880041;29;20123;-92
2021/01/21 10:20:40;;;;;;;5.47;2.10;;;7.30;99.90;;;;;;4909635;29;20092;-89
2021/01/21 10:23:05;;;;;;;3.92;1.77;;;7.30;99.90;;;;;;4908950;29;20162;-91
2021/01/21 10:25:32;;;;;;;5.78;2.13;;;7.40;99.90;;;;;;4893102;29;20427;-90
2021/01/21 10:30:55;;;;;;;8.25;1.95;;;7.50;99.90;;;;;;4935240;29;20056;-89
2021/01/21 10:36:15;;;;;;;6.03;1.55;;;7.10;99.90;;;;;;4960789;28;20043;-90
2021/01/21 10:38:55;;;;;;;1.70;1.02;;;6.90;99.90;;;;;;4947827;29;20034;-89
2021/01/21 10:41:57;;;;;;;4.63;1.83;;;7.50;99.90;;;;;;4961827;29;20042;-88
2021/01/21 10:44:23;;;;;;;6.70;1.58;;;7.50;99.90;;;;;;4938170;29;20144;-89
2021/01/21 10:46:53;;;;;;;6.88;2.05;;;7.60;99.90;;;;;;4946245;29;20057;-88
2021/01/21 10:49:56;;;;;;;5.40;1.95;;;7.60;99.90;;;;;;4949154;28;20023;-90
2021/01/21 10:52:36;;;;;;;;;;;;;;;;;;;;;
2021/01/21 10:55:02;;;;;;;3.90;1.65;;;7.80;99.90;;;;;;4970320;28;20534;-87
2021/01/21 10:57:54;;;;;;;;;;;;;;;;;;;;;
2021/01/21 11:40:25;;;;;;;4.25;1.55;;;8.90;99.90;;;;;;6000572;23;20300;31
2021/01/21 11:46:08;;;;;;;4.07;1.45;;;8.80;99.90;;;;;;5752145;23;20050;-96
2021/01/21 11:48:33;;;;;;;3.88;1.27;;;8.90;99.90;;;;;;4939062;29;20032;-94
2021/01/21 11:50:59;;;;;;;2.83;1.50;;;9.10;99.90;;;;;;4925594;29;20027;-94
2021/01/21 11:53:29;;;;;;;5.82;1.63;;;9.20;99.90;;;;;;5146245;23;20107;-89
2021/01/21 11:56:13;;;;;;;7.90;2.17;;;9.30;99.90;;;;;;5078888;23;20018;-94
2021/01/21 11:58:39;;;;;;;3.58;1.40;;;9.50;99.90;;;;;;4949313;29;20100;-94
2021/01/21 12:01:05;;;;;;;5.72;1.70;;;9.50;99.90;;;;;;4927449;29;20028;-90
2021/01/21 12:03:33;;;;;;;7.40;1.40;;;9.60;99.90;;;;;;4931134;29;20042;-87
2021/01/21 12:06:01;;;;;;;4.25;1.50;;;9.60;99.90;;;;;;4938855;29;20028;-89
2021/01/21 12:13:49;;;;;;;2.38;1.48;;;9.70;99.90;;;;;;5222769;23;20087;-91
2021/01/21 12:16:18;;;;;;;5.32;2.33;;;9.70;99.90;;;;;;4958223;28;20062;-91
2021/01/21 12:21:36;;;;;;;4.13;1.35;;;9.80;99.90;;;;;;4954850;29;20051;-90
2021/01/21 12:24:05;;;;;;;3.83;1.42;;;9.90;99.90;;;;;;5302372;23;20018;-90
2021/01/21 12:26:35;;;;;;;4.38;1.50;;;9.90;99.90;;;;;;4936420;29;20583;-91
2021/01/21 12:29:07;;;;;;;4.87;1.23;;;10.10;99.90;;;;;;4938849;29;20215;-90
2021/01/21 13:03:41;;;;;;;4.07;1.10;;;10.10;99.90;;;;;;5027531;23;20118;-89
2021/01/21 13:06:10;;;;;;;3.75;1.30;;;10.10;99.90;;;;;;4937329;29;20585;-88
2021/01/21 13:08:45;;;;;;;7.38;1.45;;;10.20;99.90;;;;;;4935876;29;20032;-89
2021/01/21 13:11:11;;;;;;;3.25;1.25;;;10.20;99.90;;;;;;4963133;29;20023;-89
2021/01/21 13:16:50;;;;;;;4.07;1.10;;;10.20;99.90;;;;;;4896593;29;20066;-89
2021/01/21 13:19:21;;;;;;;3.83;1.45;;;10.10;99.90;;;;;;4894234;29;20414;-90
2021/01/21 13:21:49;;;;;;;;;;;10.20;99.90;;;;;;4872881;29;20368;-92
2021/01/21 13:24:18;;;;;;;2.70;1.20;;;10.20;99.90;;;;;;4878747;29;19919;-90
2021/01/21 13:26:49;;;;;;;7.70;1.80;;;10.20;99.90;;;;;;4877726;29;20024;-89
2021/01/21 13:29:20;;;;;;;11.68;1.30;;;10.20;99.90;;;;;;4895880;29;20033;-91
2021/01/21 13:31:47;;;;;;;1.17;0.80;;;10.20;99.90;;;;;;4896221;29;20029;-90
2021/01/21 13:34:18;;;;;;;4.35;1.58;;;10.20;99.90;;;;;;4879941;29;20059;-89
2021/01/21 13:36:50;;;;;;;;;;;10.20;99.90;;;;;;4878473;29;20082;-90
2021/01/21 13:40:11;;;;;;;5.22;2.40;;;10.20;99.90;;;;;;4895584;29;19907;-91
2021/01/21 13:42:38;;;;;;;4.93;1.77;;;10.10;99.90;;;;;;4856167;29;20029;-90
2021/01/21 13:45:07;;;;;;;3.50;1.10;;;10.10;99.90;;;;;;4850981;29;20110;-89
2021/01/21 13:47:37;;;;;;;4.47;1.30;;;10.20;99.90;;;;;;4855953;29;20056;-91
2021/01/21 13:53:26;;;;;;;7.63;1.52;;;10.00;99.90;;;;;;4879838;29;20611;-88
2021/01/21 13:56:05;;;;;;;4.07;1.65;;;10.10;99.90;;;;;;4885291;29;20039;-90
2021/01/21 13:58:47;;;;;;;3.10;1.30;;;10.10;99.90;;;;;;4915202;29;20039;-90
2021/01/21 14:01:25;;;;;;;5.32;1.50;;;10.10;99.90;;;;;;4879613;29;20033;-92
2021/01/21 14:03:51;;;;;;;2.60;1.30;;;10.10;99.90;;;;;;4917870;29;20044;-89
2021/01/21 14:06:20;;;;;;;3.28;1.58;;;10.00;99.90;;;;;;4909143;29;20029;-90
2021/01/21 14:11:45;;;;;;;5.03;1.80;;;10.00;99.90;;;;;;5074973;23;20235;-92
2021/01/21 14:14:14;;;;;;;5.97;1.95;;;10.00;99.90;;;;;;4948394;29;20039;-90
2021/01/21 14:19:58;;;;;;;4.70;1.10;;;10.00;99.90;;;;;;4963720;29;20447;-92
2021/01/21 14:22:36;;;;;;;3.90;1.60;;;9.90;99.90;;;;;;4942717;29;20036;-90
2021/01/21 14:25:11;;;;;;;5.05;1.52;;;9.90;99.90;;;;;;4954930;29;20060;-92
2021/01/21 14:27:43;;;;;;;6.75;1.52;;;9.80;99.90;;;;;;4949115;29;20023;-90
2021/01/21 14:30:09;;;;;;;14.18;3.45;;;9.70;99.90;;;;;;4961910;28;20019;-91
2021/01/21 14:32:46;;;;;;;8.05;1.50;;;9.70;99.90;;;;;;4963700;28;20086;-91
2021/01/21 14:35:16;;;;;;;5.95;2.33;;;9.70;99.90;;;;;;4958645;28;20058;-90
2021/01/21 14:37:43;;;;;;;6.28;2.45;;;9.70;99.90;;;;;;5034887;23;20044;-82
2021/01/21 14:42:46;;;;;;;5.20;0.90;;;9.60;99.90;;;;;;5388485;23;20051;-92
2021/01/21 14:45:47;;;;;;;;;;;;;;;;;;;;;
2021/01/21 14:48:26;;;;;;;1.85;1.05;;;9.10;99.90;;;;;;4976023;28;20031;-87
2021/01/21 14:50:52;;;;;;;2.83;1.80;;;9.50;99.90;;;;;;4942885;29;20032;-88
2021/01/21 14:53:18;;;;;;;6.70;1.33;;;9.50;99.90;;;;;;4935126;29;20336;-88
2021/01/21 14:55:46;;;;;;;1.50;0.90;;;9.50;99.90;;;;;;4938173;29;20031;-87
2021/01/21 14:58:16;;;;;;;5.55;1.25;;;9.50;99.90;;;;;;4940339;29;20028;-89
2021/01/21 15:00:45;;;;;;;4.72;1.17;;;9.50;99.90;;;;;;4941257;29;20125;-90
2021/01/21 15:03:20;;;;;;;3.38;1.38;;;9.50;99.90;;;;;;4941983;29;20031;-88
2021/01/21 15:05:50;;;;;;;6.47;1.80;;;9.50;99.90;;;;;;4968824;28;20158;-87
2021/01/21 15:08:16;;;;;;;3.40;1.13;;;9.40;99.90;;;;;;4932428;29;20050;-87
2021/01/21 15:10:42;;;;;;;6.07;1.58;;;9.40;99.90;;;;;;4947722;29;20039;-87
2021/01/21 15:13:14;;;;;;;3.35;1.10;;;9.40;99.90;;;;;;4970081;28;20038;-87
2021/01/21 15:15:42;;;;;;;5.97;1.70;;;9.30;99.90;;;;;;4956841;29;20102;-90
2021/01/21 15:18:08;;;;;;;4.15;1.40;;;9.30;99.90;;;;;;4951210;28;20342;-88
2021/01/21 15:21:07;;;;;;;3.90;1.45;;;9.20;99.90;;;;;;4940735;29;20043;-89
2021/01/21 15:23:34;;;;;;;5.88;1.48;;;9.20;99.90;;;;;;4952859;29;20054;-89
2021/01/21 15:26:01;;;;;;;5.65;1.45;;;9.10;99.90;;;;;;4933828;29;20118;-88
2021/01/21 15:28:26;;;;;;;3.63;1.30;;;9.10;99.90;;;;;;4939640;29;20042;-89